Terminal Aerodrome Forecast
Issued by NWS Sioux Falls, SD

Home | Current Version | Previous Version | Text Only | Print | Product List | Glossary On
Versions: 1 2 3 4 5 6 7 8 9 10 11 12 13 14 15 16 17 18 19 20 21 22 23 24
681
FTUS43 KFSD 011322 AAA
TAFFSD
TAF AMD
KFSD 011322Z 0113/0212 32013G19KT 2SM -SN OVC025
     FM011330 32011KT P6SM OVC025
     FM011400 31010KT P6SM OVC035
     FM011900 31015G27KT P6SM OVC025
     FM012200 31015G24KT P6SM BKN040
     FM020400 19007KT P6SM BKN120
     FM021100 28007KT P6SM BKN070=

USA.gov is the U.S. government's official web portal to all federal, state and local government web resources and services.